sensor_id;sensor_type;location;lat;lon;timestamp;P1;durP1;ratioP1;P2;durP2;ratioP2
39882;SDS011;55824;52.220;21.040;2022-10-16T00:00:34;12.25;;;9.38;;
39882;SDS011;55824;52.220;21.040;2022-10-16T00:03:01;10.75;;;9.65;;
39882;SDS011;55824;52.220;21.040;2022-10-16T00:05:27;11.38;;;10.18;;
39882;SDS011;55824;52.220;21.040;2022-10-16T00:07:53;11.43;;;9.60;;
39882;SDS011;55824;52.220;21.040;2022-10-16T00:10:19;11.57;;;9.77;;
39882;SDS011;55824;52.220;21.040;2022-10-16T00:12:44;15.55;;;9.77;;
39882;SDS011;55824;52.220;21.040;2022-10-16T00:15:11;10.60;;;8.90;;
39882;SDS011;55824;52.220;21.040;2022-10-16T00:17:37;11.63;;;9.48;;
39882;SDS011;55824;52.220;21.040;2022-10-16T00:20:03;11.63;;;9.52;;
39882;SDS011;55824;52.220;21.040;2022-10-16T00:22:29;10.00;;;8.57;;
39882;SDS011;55824;52.220;21.040;2022-10-16T00:24:55;11.13;;;9.27;;
39882;SDS011;55824;52.220;21.040;2022-10-16T00:27:21;12.32;;;9.52;;
39882;SDS011;55824;52.220;21.040;2022-10-16T00:29:50;12.50;;;10.10;;
39882;SDS011;55824;52.220;21.040;2022-10-16T00:32:17;11.90;;;9.32;;
39882;SDS011;55824;52.220;21.040;2022-10-16T00:34:43;9.73;;;8.50;;
39882;SDS011;55824;52.220;21.040;2022-10-16T00:37:09;10.70;;;9.05;;
39882;SDS011;55824;52.220;21.040;2022-10-16T00:39:35;10.63;;;9.07;;
39882;SDS011;55824;52.220;21.040;2022-10-16T00:42:01;11.02;;;9.27;;
39882;SDS011;55824;52.220;21.040;2022-10-16T00:47:10;10.55;;;9.13;;
39882;SDS011;55824;52.220;21.040;2022-10-16T00:49:37;12.60;;;9.25;;
39882;SDS011;55824;52.220;21.040;2022-10-16T00:52:04;13.85;;;10.23;;
39882;SDS011;55824;52.220;21.040;2022-10-16T00:54:31;10.35;;;9.20;;
39882;SDS011;55824;52.220;21.040;2022-10-16T00:56:58;12.57;;;9.93;;
39882;SDS011;55824;52.220;21.040;2022-10-16T00:59:27;11.90;;;9.40;;
39882;SDS011;55824;52.220;21.040;2022-10-16T01:01:53;10.57;;;9.27;;
39882;SDS011;55824;52.220;21.040;2022-10-16T01:04:19;12.15;;;9.80;;
39882;SDS011;55824;52.220;21.040;2022-10-16T01:09:35;11.02;;;9.80;;
39882;SDS011;55824;52.220;21.040;2022-10-16T01:12:07;11.55;;;9.55;;
39882;SDS011;55824;52.220;21.040;2022-10-16T01:17:03;9.95;;;8.75;;
39882;SDS011;55824;52.220;21.040;2022-10-16T01:19:35;13.55;;;9.55;;
39882;SDS011;55824;52.220;21.040;2022-10-16T01:22:04;10.77;;;9.68;;
39882;SDS011;55824;52.220;21.040;2022-10-16T01:24:31;10.68;;;9.63;;
39882;SDS011;55824;52.220;21.040;2022-10-16T01:32:10;11.52;;;10.07;;
39882;SDS011;55824;52.220;21.040;2022-10-16T01:34:50;11.13;;;9.95;;
39882;SDS011;55824;52.220;21.040;2022-10-16T01:38:00;11.57;;;9.77;;
39882;SDS011;55824;52.220;21.040;2022-10-16T01:40:08;11.18;;;9.52;;
39882;SDS011;55824;52.220;21.040;2022-10-16T01:42:36;12.10;;;10.55;;
39882;SDS011;55824;52.220;21.040;2022-10-16T01:45:03;11.05;;;9.32;;
39882;SDS011;55824;52.220;21.040;2022-10-16T01:47:31;11.65;;;9.98;;
39882;SDS011;55824;52.220;21.040;2022-10-16T01:49:57;10.23;;;8.50;;
39882;SDS011;55824;52.220;21.040;2022-10-16T01:52:25;12.57;;;8.90;;
39882;SDS011;55824;52.220;21.040;2022-10-16T01:54:52;10.85;;;9.50;;
39882;SDS011;55824;52.220;21.040;2022-10-16T01:57:20;11.10;;;9.85;;
39882;SDS011;55824;52.220;21.040;2022-10-16T01:59:47;10.85;;;9.70;;
39882;SDS011;55824;52.220;21.040;2022-10-16T02:02:14;10.00;;;9.00;;
39882;SDS011;55824;52.220;21.040;2022-10-16T02:04:45;11.30;;;10.02;;
39882;SDS011;55824;52.220;21.040;2022-10-16T02:07:11;12.73;;;9.88;;
39882;SDS011;55824;52.220;21.040;2022-10-16T02:09:38;12.52;;;9.57;;
39882;SDS011;55824;52.220;21.040;2022-10-16T02:12:38;11.20;;;9.55;;
39882;SDS011;55824;52.220;21.040;2022-10-16T02:14:57;11.85;;;9.88;;
39882;SDS011;55824;52.220;21.040;2022-10-16T02:17:23;10.77;;;9.27;;
39882;SDS011;55824;52.220;21.040;2022-10-16T02:19:49;11.40;;;9.50;;
39882;SDS011;55824;52.220;21.040;2022-10-16T02:22:34;11.45;;;10.07;;
39882;SDS011;55824;52.220;21.040;2022-10-16T02:27:35;11.88;;;9.85;;
39882;SDS011;55824;52.220;21.040;2022-10-16T02:30:38;14.18;;;10.75;;
39882;SDS011;55824;52.220;21.040;2022-10-16T02:32:55;12.95;;;9.88;;
39882;SDS011;55824;52.220;21.040;2022-10-16T02:35:22;11.98;;;9.15;;
39882;SDS011;55824;52.220;21.040;2022-10-16T02:37:49;13.55;;;10.93;;
39882;SDS011;55824;52.220;21.040;2022-10-16T02:40:15;10.32;;;8.93;;
39882;SDS011;55824;52.220;21.040;2022-10-16T02:42:43;10.43;;;9.18;;
39882;SDS011;55824;52.220;21.040;2022-10-16T02:45:10;10.75;;;9.48;;
39882;SDS011;55824;52.220;21.040;2022-10-16T02:47:37;12.70;;;9.40;;
39882;SDS011;55824;52.220;21.040;2022-10-16T02:50:03;12.15;;;9.50;;
39882;SDS011;55824;52.220;21.040;2022-10-16T02:52:29;10.90;;;9.80;;
39882;SDS011;55824;52.220;21.040;2022-10-16T02:54:55;11.10;;;9.55;;
39882;SDS011;55824;52.220;21.040;2022-10-16T02:57:21;10.23;;;8.57;;
39882;SDS011;55824;52.220;21.040;2022-10-16T02:59:47;10.60;;;9.50;;
39882;SDS011;55824;52.220;21.040;2022-10-16T03:02:13;11.63;;;9.40;;
39882;SDS011;55824;52.220;21.040;2022-10-16T03:04:39;10.82;;;9.40;;
39882;SDS011;55824;52.220;21.040;2022-10-16T03:07:05;9.73;;;8.43;;
39882;SDS011;55824;52.220;21.040;2022-10-16T03:09:32;10.68;;;9.20;;
39882;SDS011;55824;52.220;21.040;2022-10-16T03:11:58;11.23;;;9.18;;
39882;SDS011;55824;52.220;21.040;2022-10-16T03:14:24;9.65;;;8.65;;
39882;SDS011;55824;52.220;21.040;2022-10-16T03:16:50;12.45;;;9.20;;
39882;SDS011;55824;52.220;21.040;2022-10-16T03:19:17;10.13;;;9.02;;
39882;SDS011;55824;52.220;21.040;2022-10-16T03:21:43;10.35;;;8.75;;
39882;SDS011;55824;52.220;21.040;2022-10-16T03:24:09;9.73;;;8.73;;
39882;SDS011;55824;52.220;21.040;2022-10-16T03:26:35;11.20;;;9.00;;
39882;SDS011;55824;52.220;21.040;2022-10-16T03:29:02;11.25;;;8.50;;
39882;SDS011;55824;52.220;21.040;2022-10-16T03:31:28;10.10;;;8.85;;
39882;SDS011;55824;52.220;21.040;2022-10-16T03:33:55;10.30;;;8.65;;
39882;SDS011;55824;52.220;21.040;2022-10-16T03:36:21;9.95;;;8.95;;
39882;SDS011;55824;52.220;21.040;2022-10-16T03:38:47;9.93;;;8.73;;
39882;SDS011;55824;52.220;21.040;2022-10-16T03:41:13;10.25;;;9.13;;
39882;SDS011;55824;52.220;21.040;2022-10-16T03:43:39;9.68;;;8.68;;
39882;SDS011;55824;52.220;21.040;2022-10-16T03:46:05;10.93;;;9.07;;
39882;SDS011;55824;52.220;21.040;2022-10-16T03:48:31;9.45;;;8.45;;
39882;SDS011;55824;52.220;21.040;2022-10-16T03:50:57;10.35;;;8.43;;
39882;SDS011;55824;52.220;21.040;2022-10-16T03:53:24;11.10;;;9.05;;
39882;SDS011;55824;52.220;21.040;2022-10-16T03:55:50;9.70;;;8.52;;
39882;SDS011;55824;52.220;21.040;2022-10-16T03:58:16;10.95;;;8.98;;
39882;SDS011;55824;52.220;21.040;2022-10-16T04:00:43;9.23;;;7.97;;
39882;SDS011;55824;52.220;21.040;2022-10-16T04:03:09;11.18;;;8.52;;
39882;SDS011;55824;52.220;21.040;2022-10-16T04:05:35;10.05;;;8.57;;
39882;SDS011;55824;52.220;21.040;2022-10-16T04:08:01;11.00;;;9.18;;
39882;SDS011;55824;52.220;21.040;2022-10-16T04:10:27;11.43;;;9.15;;
39882;SDS011;55824;52.220;21.040;2022-10-16T04:12:53;10.35;;;8.75;;
39882;SDS011;55824;52.220;21.040;2022-10-16T04:15:21;9.25;;;8.27;;
39882;SDS011;55824;52.220;21.040;2022-10-16T04:17:47;12.30;;;8.32;;
39882;SDS011;55824;52.220;21.040;2022-10-16T04:20:13;9.40;;;8.40;;
39882;SDS011;55824;52.220;21.040;2022-10-16T04:22:39;10.23;;;8.93;;
39882;SDS011;55824;52.220;21.040;2022-10-16T04:25:06;9.15;;;8.15;;
39882;SDS011;55824;52.220;21.040;2022-10-16T04:27:32;10.05;;;8.20;;
39882;SDS011;55824;52.220;21.040;2022-10-16T04:29:58;15.45;;;9.35;;
39882;SDS011;55824;52.220;21.040;2022-10-16T04:32:25;12.30;;;9.30;;
39882;SDS011;55824;52.220;21.040;2022-10-16T04:34:51;10.90;;;8.77;;
39882;SDS011;55824;52.220;21.040;2022-10-16T04:37:17;9.13;;;7.97;;
39882;SDS011;55824;52.220;21.040;2022-10-16T04:39:43;9.63;;;8.63;;
39882;SDS011;55824;52.220;21.040;2022-10-16T04:42:10;8.88;;;7.63;;
39882;SDS011;55824;52.220;21.040;2022-10-16T04:44:36;9.38;;;8.15;;
39882;SDS011;55824;52.220;21.040;2022-10-16T04:47:02;10.23;;;8.48;;
39882;SDS011;55824;52.220;21.040;2022-10-16T04:49:29;9.65;;;8.10;;
39882;SDS011;55824;52.220;21.040;2022-10-16T04:51:55;9.43;;;8.13;;
39882;SDS011;55824;52.220;21.040;2022-10-16T04:54:21;9.35;;;8.35;;
39882;SDS011;55824;52.220;21.040;2022-10-16T04:56:47;10.85;;;8.35;;
39882;SDS011;55824;52.220;21.040;2022-10-16T04:59:15;10.48;;;8.05;;
39882;SDS011;55824;52.220;21.040;2022-10-16T05:01:41;9.63;;;7.90;;
39882;SDS011;55824;52.220;21.040;2022-10-16T05:04:07;9.02;;;7.90;;
39882;SDS011;55824;52.220;21.040;2022-10-16T05:06:33;8.82;;;7.90;;
39882;SDS011;55824;52.220;21.040;2022-10-16T05:08:59;10.07;;;8.00;;
39882;SDS011;55824;52.220;21.040;2022-10-16T05:11:25;10.48;;;7.40;;
39882;SDS011;55824;52.220;21.040;2022-10-16T05:13:51;8.45;;;7.32;;
39882;SDS011;55824;52.220;21.040;2022-10-16T05:16:17;8.52;;;7.60;;
39882;SDS011;55824;52.220;21.040;2022-10-16T05:18:43;8.73;;;7.20;;
39882;SDS011;55824;52.220;21.040;2022-10-16T05:21:09;18.17;;;8.18;;
39882;SDS011;55824;52.220;21.040;2022-10-16T05:23:35;8.88;;;7.97;;
39882;SDS011;55824;52.220;21.040;2022-10-16T05:26:01;9.70;;;7.32;;
39882;SDS011;55824;52.220;21.040;2022-10-16T05:28:28;9.73;;;7.97;;
39882;SDS011;55824;52.220;21.040;2022-10-16T05:30:55;11.40;;;8.20;;
39882;SDS011;55824;52.220;21.040;2022-10-16T05:33:21;15.30;;;8.45;;
39882;SDS011;55824;52.220;21.040;2022-10-16T05:35:47;9.93;;;8.00;;
39882;SDS011;55824;52.220;21.040;2022-10-16T05:38:14;10.82;;;7.97;;
39882;SDS011;55824;52.220;21.040;2022-10-16T05:40:40;13.32;;;8.13;;
39882;SDS011;55824;52.220;21.040;2022-10-16T05:43:06;8.88;;;7.47;;
39882;SDS011;55824;52.220;21.040;2022-10-16T05:45:32;9.40;;;7.38;;
39882;SDS011;55824;52.220;21.040;2022-10-16T05:47:59;10.13;;;8.70;;
39882;SDS011;55824;52.220;21.040;2022-10-16T05:50:25;10.90;;;7.95;;
39882;SDS011;55824;52.220;21.040;2022-10-16T05:52:51;10.20;;;7.63;;
39882;SDS011;55824;52.220;21.040;2022-10-16T05:55:17;12.05;;;7.60;;
39882;SDS011;55824;52.220;21.040;2022-10-16T05:57:43;11.43;;;7.93;;
39882;SDS011;55824;52.220;21.040;2022-10-16T06:00:10;10.35;;;8.43;;
39882;SDS011;55824;52.220;21.040;2022-10-16T06:02:36;10.75;;;8.00;;
39882;SDS011;55824;52.220;21.040;2022-10-16T06:05:02;9.82;;;8.23;;
39882;SDS011;55824;52.220;21.040;2022-10-16T06:07:28;10.43;;;8.23;;
39882;SDS011;55824;52.220;21.040;2022-10-16T06:09:54;12.68;;;8.32;;
39882;SDS011;55824;52.220;21.040;2022-10-16T06:12:20;12.10;;;8.77;;
39882;SDS011;55824;52.220;21.040;2022-10-16T06:14:46;12.05;;;8.50;;
39882;SDS011;55824;52.220;21.040;2022-10-16T06:17:13;18.35;;;8.77;;
39882;SDS011;55824;52.220;21.040;2022-10-16T06:19:39;13.07;;;8.00;;
39882;SDS011;55824;52.220;21.040;2022-10-16T06:22:05;12.02;;;8.57;;
39882;SDS011;55824;52.220;21.040;2022-10-16T06:24:31;12.15;;;9.10;;
39882;SDS011;55824;52.220;21.040;2022-10-16T06:26:57;14.05;;;9.65;;
39882;SDS011;55824;52.220;21.040;2022-10-16T06:29:23;13.88;;;9.10;;
39882;SDS011;55824;52.220;21.040;2022-10-16T06:31:49;17.30;;;11.88;;
39882;SDS011;55824;52.220;21.040;2022-10-16T06:34:15;16.85;;;11.25;;
39882;SDS011;55824;52.220;21.040;2022-10-16T06:36:41;15.57;;;11.85;;
39882;SDS011;55824;52.220;21.040;2022-10-16T06:39:08;16.38;;;11.82;;
39882;SDS011;55824;52.220;21.040;2022-10-16T06:41:34;15.93;;;11.38;;
39882;SDS011;55824;52.220;21.040;2022-10-16T06:44:00;20.75;;;12.07;;
39882;SDS011;55824;52.220;21.040;2022-10-16T06:46:26;20.67;;;13.68;;
39882;SDS011;55824;52.220;21.040;2022-10-16T06:48:52;23.83;;;12.98;;
39882;SDS011;55824;52.220;21.040;2022-10-16T06:51:20;19.95;;;13.35;;
39882;SDS011;55824;52.220;21.040;2022-10-16T06:53:50;17.45;;;12.25;;
39882;SDS011;55824;52.220;21.040;2022-10-16T06:56:17;15.10;;;11.82;;
39882;SDS011;55824;52.220;21.040;2022-10-16T06:58:44;17.08;;;11.35;;
39882;SDS011;55824;52.220;21.040;2022-10-16T07:01:10;17.38;;;9.70;;
39882;SDS011;55824;52.220;21.040;2022-10-16T07:03:37;13.18;;;10.68;;
39882;SDS011;55824;52.220;21.040;2022-10-16T07:06:04;13.27;;;10.82;;
39882;SDS011;55824;52.220;21.040;2022-10-16T07:08:34;13.38;;;11.35;;
39882;SDS011;55824;52.220;21.040;2022-10-16T07:11:01;14.15;;;10.15;;
39882;SDS011;55824;52.220;21.040;2022-10-16T07:13:27;13.52;;;10.25;;
39882;SDS011;55824;52.220;21.040;2022-10-16T07:15:53;14.52;;;10.60;;
39882;SDS011;55824;52.220;21.040;2022-10-16T07:18:20;13.88;;;10.90;;
39882;SDS011;55824;52.220;21.040;2022-10-16T07:20:51;12.35;;;9.85;;
39882;SDS011;55824;52.220;21.040;2022-10-16T07:23:17;11.70;;;10.48;;
39882;SDS011;55824;52.220;21.040;2022-10-16T07:25:43;34.42;;;10.90;;
39882;SDS011;55824;52.220;21.040;2022-10-16T07:28:09;15.45;;;9.75;;
39882;SDS011;55824;52.220;21.040;2022-10-16T07:30:35;12.95;;;9.70;;
39882;SDS011;55824;52.220;21.040;2022-10-16T07:33:02;14.00;;;10.05;;
39882;SDS011;55824;52.220;21.040;2022-10-16T07:35:28;16.63;;;10.60;;
39882;SDS011;55824;52.220;21.040;2022-10-16T07:37:54;16.67;;;9.95;;
39882;SDS011;55824;52.220;21.040;2022-10-16T07:40:20;11.75;;;9.55;;
39882;SDS011;55824;52.220;21.040;2022-10-16T07:42:46;12.70;;;10.00;;
39882;SDS011;55824;52.220;21.040;2022-10-16T07:45:12;14.10;;;10.30;;
39882;SDS011;55824;52.220;21.040;2022-10-16T07:47:38;13.98;;;10.57;;
39882;SDS011;55824;52.220;21.040;2022-10-16T07:50:05;14.73;;;11.02;;
39882;SDS011;55824;52.220;21.040;2022-10-16T07:52:31;16.58;;;12.63;;
39882;SDS011;55824;52.220;21.040;2022-10-16T07:54:57;16.77;;;12.40;;
39882;SDS011;55824;52.220;21.040;2022-10-16T07:57:23;20.15;;;12.35;;
39882;SDS011;55824;52.220;21.040;2022-10-16T07:59:49;20.05;;;13.18;;
39882;SDS011;55824;52.220;21.040;2022-10-16T08:02:15;20.48;;;11.43;;
39882;SDS011;55824;52.220;21.040;2022-10-16T08:04:41;14.70;;;10.65;;
39882;SDS011;55824;52.220;21.040;2022-10-16T08:07:07;13.35;;;10.73;;
39882;SDS011;55824;52.220;21.040;2022-10-16T08:09:33;18.27;;;10.98;;
39882;SDS011;55824;52.220;21.040;2022-10-16T08:11:59;19.92;;;11.57;;
39882;SDS011;55824;52.220;21.040;2022-10-16T08:14:26;21.23;;;9.88;;
39882;SDS011;55824;52.220;21.040;2022-10-16T08:16:52;19.35;;;11.18;;
39882;SDS011;55824;52.220;21.040;2022-10-16T08:19:18;12.43;;;9.20;;
39882;SDS011;55824;52.220;21.040;2022-10-16T08:21:46;16.05;;;9.68;;
39882;SDS011;55824;52.220;21.040;2022-10-16T08:24:13;13.70;;;10.07;;
39882;SDS011;55824;52.220;21.040;2022-10-16T08:26:39;13.50;;;10.18;;
39882;SDS011;55824;52.220;21.040;2022-10-16T08:29:05;13.02;;;10.63;;
39882;SDS011;55824;52.220;21.040;2022-10-16T08:31:31;13.52;;;8.63;;
39882;SDS011;55824;52.220;21.040;2022-10-16T08:33:57;15.85;;;8.88;;
39882;SDS011;55824;52.220;21.040;2022-10-16T08:36:23;13.13;;;9.30;;
39882;SDS011;55824;52.220;21.040;2022-10-16T08:38:49;13.70;;;9.43;;
39882;SDS011;55824;52.220;21.040;2022-10-16T08:41:22;11.23;;;8.82;;
39882;SDS011;55824;52.220;21.040;2022-10-16T08:48:53;12.75;;;9.48;;
39882;SDS011;55824;52.220;21.040;2022-10-16T08:51:22;13.43;;;9.57;;
39882;SDS011;55824;52.220;21.040;2022-10-16T08:53:50;13.93;;;9.63;;
39882;SDS011;55824;52.220;21.040;2022-10-16T08:56:18;11.07;;;9.68;;
39882;SDS011;55824;52.220;21.040;2022-10-16T08:58:45;13.02;;;8.65;;
39882;SDS011;55824;52.220;21.040;2022-10-16T09:01:12;11.85;;;9.15;;
39882;SDS011;55824;52.220;21.040;2022-10-16T09:11:48;11.18;;;8.65;;
39882;SDS011;55824;52.220;21.040;2022-10-16T09:16:46;10.43;;;8.75;;
39882;SDS011;55824;52.220;21.040;2022-10-16T09:19:22;12.15;;;8.93;;
39882;SDS011;55824;52.220;21.040;2022-10-16T09:21:50;10.90;;;8.55;;
39882;SDS011;55824;52.220;21.040;2022-10-16T09:24:18;13.00;;;8.52;;
39882;SDS011;55824;52.220;21.040;2022-10-16T09:26:45;13.15;;;8.82;;
39882;SDS011;55824;52.220;21.040;2022-10-16T09:29:14;13.18;;;9.20;;
39882;SDS011;55824;52.220;21.040;2022-10-16T09:31:41;16.38;;;9.07;;
39882;SDS011;55824;52.220;21.040;2022-10-16T09:34:25;14.32;;;8.98;;
39882;SDS011;55824;52.220;21.040;2022-10-16T09:36:53;13.25;;;9.70;;
39882;SDS011;55824;52.220;21.040;2022-10-16T09:39:19;9.25;;;8.18;;
39882;SDS011;55824;52.220;21.040;2022-10-16T09:41:45;10.10;;;8.55;;
39882;SDS011;55824;52.220;21.040;2022-10-16T09:46:43;11.13;;;8.40;;
39882;SDS011;55824;52.220;21.040;2022-10-16T09:49:49;9.15;;;7.70;;
39882;SDS011;55824;52.220;21.040;2022-10-16T09:52:06;12.50;;;8.75;;
39882;SDS011;55824;52.220;21.040;2022-10-16T09:54:32;14.70;;;7.93;;
39882;SDS011;55824;52.220;21.040;2022-10-16T09:57:16;12.82;;;8.75;;
39882;SDS011;55824;52.220;21.040;2022-10-16T09:59:48;20.17;;;9.10;;
39882;SDS011;55824;52.220;21.040;2022-10-16T10:02:15;11.35;;;9.00;;
39882;SDS011;55824;52.220;21.040;2022-10-16T10:04:45;15.38;;;8.35;;
39882;SDS011;55824;52.220;21.040;2022-10-16T10:07:26;10.52;;;8.70;;
39882;SDS011;55824;52.220;21.040;2022-10-16T10:12:19;14.63;;;8.43;;
39882;SDS011;55824;52.220;21.040;2022-10-16T10:14:52;21.45;;;12.65;;
39882;SDS011;55824;52.220;21.040;2022-10-16T10:17:25;23.45;;;12.32;;
39882;SDS011;55824;52.220;21.040;2022-10-16T10:19:53;27.58;;;16.10;;
39882;SDS011;55824;52.220;21.040;2022-10-16T10:32:39;23.42;;;12.40;;
39882;SDS011;55824;52.220;21.040;2022-10-16T10:37:37;34.28;;;16.80;;
39882;SDS011;55824;52.220;21.040;2022-10-16T10:40:40;24.85;;;12.70;;
39882;SDS011;55824;52.220;21.040;2022-10-16T10:43:01;34.05;;;15.32;;
39882;SDS011;55824;52.220;21.040;2022-10-16T10:45:43;27.83;;;14.05;;
39882;SDS011;55824;52.220;21.040;2022-10-16T10:50:48;26.38;;;11.27;;
39882;SDS011;55824;52.220;21.040;2022-10-16T10:53:21;24.67;;;10.57;;
39882;SDS011;55824;52.220;21.040;2022-10-16T10:56:05;18.45;;;9.95;;
39882;SDS011;55824;52.220;21.040;2022-10-16T11:01:16;19.40;;;9.95;;
39882;SDS011;55824;52.220;21.040;2022-10-16T11:04:05;14.60;;;8.88;;
39882;SDS011;55824;52.220;21.040;2022-10-16T11:06:36;21.42;;;9.77;;
39882;SDS011;55824;52.220;21.040;2022-10-16T11:09:12;24.92;;;10.43;;
39882;SDS011;55824;52.220;21.040;2022-10-16T11:14:10;25.88;;;10.90;;
39882;SDS011;55824;52.220;21.040;2022-10-16T11:16:40;21.02;;;9.52;;
39882;SDS011;55824;52.220;21.040;2022-10-16T11:19:12;20.27;;;9.77;;
39882;SDS011;55824;52.220;21.040;2022-10-16T11:21:48;24.52;;;8.93;;
39882;SDS011;55824;52.220;21.040;2022-10-16T11:24:19;19.00;;;9.68;;
39882;SDS011;55824;52.220;21.040;2022-10-16T11:26:46;21.50;;;9.73;;
39882;SDS011;55824;52.220;21.040;2022-10-16T11:29:16;17.33;;;10.20;;
39882;SDS011;55824;52.220;21.040;2022-10-16T11:31:46;20.38;;;9.90;;
39882;SDS011;55824;52.220;21.040;2022-10-16T11:34:23;23.65;;;10.20;;
39882;SDS011;55824;52.220;21.040;2022-10-16T11:39:36;17.05;;;9.25;;
39882;SDS011;55824;52.220;21.040;2022-10-16T11:44:57;16.10;;;8.90;;
39882;SDS011;55824;52.220;21.040;2022-10-16T11:49:58;15.15;;;8.43;;
39882;SDS011;55824;52.220;21.040;2022-10-16T11:52:30;13.18;;;8.38;;
39882;SDS011;55824;52.220;21.040;2022-10-16T11:54:59;11.23;;;8.40;;
39882;SDS011;55824;52.220;21.040;2022-10-16T11:58:09;14.73;;;7.63;;
39882;SDS011;55824;52.220;21.040;2022-10-16T12:00:25;13.38;;;7.85;;
39882;SDS011;55824;52.220;21.040;2022-10-16T12:05:24;9.90;;;7.30;;
39882;SDS011;55824;52.220;21.040;2022-10-16T12:10:27;10.05;;;8.10;;
39882;SDS011;55824;52.220;21.040;2022-10-16T12:12:53;9.40;;;7.35;;
39882;SDS011;55824;52.220;21.040;2022-10-16T12:17:47;10.05;;;7.53;;
39882;SDS011;55824;52.220;21.040;2022-10-16T12:22:59;9.70;;;7.22;;
39882;SDS011;55824;52.220;21.040;2022-10-16T12:25:38;9.20;;;7.43;;
39882;SDS011;55824;52.220;21.040;2022-10-16T12:28:18;9.95;;;7.55;;
39882;SDS011;55824;52.220;21.040;2022-10-16T12:30:58;9.00;;;7.13;;
39882;SDS011;55824;52.220;21.040;2022-10-16T12:35:50;10.50;;;7.50;;
39882;SDS011;55824;52.220;21.040;2022-10-16T12:38:18;12.02;;;7.78;;
39882;SDS011;55824;52.220;21.040;2022-10-16T12:40:46;7.97;;;7.07;;
39882;SDS011;55824;52.220;21.040;2022-10-16T12:43:35;8.90;;;7.32;;
39882;SDS011;55824;52.220;21.040;2022-10-16T12:46:22;8.88;;;7.40;;
39882;SDS011;55824;52.220;21.040;2022-10-16T12:48:46;10.07;;;7.15;;
39882;SDS011;55824;52.220;21.040;2022-10-16T12:53:45;8.07;;;6.93;;
39882;SDS011;55824;52.220;21.040;2022-10-16T12:56:15;10.35;;;7.32;;
39882;SDS011;55824;52.220;21.040;2022-10-16T13:17:20;7.82;;;6.60;;
39882;SDS011;55824;52.220;21.040;2022-10-16T13:19:55;9.15;;;7.65;;
39882;SDS011;55824;52.220;21.040;2022-10-16T13:22:29;7.72;;;6.80;;
39882;SDS011;55824;52.220;21.040;2022-10-16T13:30:12;10.88;;;7.05;;
39882;SDS011;55824;52.220;21.040;2022-10-16T13:32:38;7.25;;;6.38;;
39882;SDS011;55824;52.220;21.040;2022-10-16T13:35:15;7.82;;;6.95;;
39882;SDS011;55824;52.220;21.040;2022-10-16T13:37:43;7.85;;;6.47;;
39882;SDS011;55824;52.220;21.040;2022-10-16T13:40:22;8.05;;;6.85;;
39882;SDS011;55824;52.220;21.040;2022-10-16T13:42:49;8.48;;;7.22;;
39882;SDS011;55824;52.220;21.040;2022-10-16T13:45:33;9.38;;;7.32;;
39882;SDS011;55824;52.220;21.040;2022-10-16T13:48:06;7.97;;;6.78;;
39882;SDS011;55824;52.220;21.040;2022-10-16T13:50:37;9.93;;;7.10;;
39882;SDS011;55824;52.220;21.040;2022-10-16T13:53:06;7.72;;;6.82;;
39882;SDS011;55824;52.220;21.040;2022-10-16T13:55:32;8.45;;;7.18;;
39882;SDS011;55824;52.220;21.040;2022-10-16T13:58:08;7.45;;;6.25;;
39882;SDS011;55824;52.220;21.040;2022-10-16T14:00:37;7.55;;;6.22;;
39882;SDS011;55824;52.220;21.040;2022-10-16T14:03:11;7.57;;;6.47;;
39882;SDS011;55824;52.220;21.040;2022-10-16T14:05:46;9.38;;;6.70;;
39882;SDS011;55824;52.220;21.040;2022-10-16T14:08:13;7.07;;;6.07;;
39882;SDS011;55824;52.220;21.040;2022-10-16T14:10:39;7.80;;;6.70;;
39882;SDS011;55824;52.220;21.040;2022-10-16T14:13:05;8.10;;;6.85;;
39882;SDS011;55824;52.220;21.040;2022-10-16T14:15:33;8.27;;;6.57;;
39882;SDS011;55824;52.220;21.040;2022-10-16T14:18:00;8.23;;;6.90;;
39882;SDS011;55824;52.220;21.040;2022-10-16T14:20:27;8.05;;;6.30;;
39882;SDS011;55824;52.220;21.040;2022-10-16T14:23:00;8.57;;;6.47;;
39882;SDS011;55824;52.220;21.040;2022-10-16T14:25:28;8.68;;;6.50;;
39882;SDS011;55824;52.220;21.040;2022-10-16T14:30:27;9.60;;;6.50;;
39882;SDS011;55824;52.220;21.040;2022-10-16T14:35:23;8.75;;;6.28;;
39882;SDS011;55824;52.220;21.040;2022-10-16T14:37:56;7.88;;;6.28;;
39882;SDS011;55824;52.220;21.040;2022-10-16T14:40:26;6.88;;;6.18;;
39882;SDS011;55824;52.220;21.040;2022-10-16T14:42:53;7.03;;;6.30;;
39882;SDS011;55824;52.220;21.040;2022-10-16T14:45:20;7.15;;;6.22;;
39882;SDS011;55824;52.220;21.040;2022-10-16T14:47:48;8.27;;;6.88;;
39882;SDS011;55824;52.220;21.040;2022-10-16T14:50:15;9.13;;;6.80;;
39882;SDS011;55824;52.220;21.040;2022-10-16T14:52:41;8.23;;;5.75;;
39882;SDS011;55824;52.220;21.040;2022-10-16T14:55:08;7.63;;;6.30;;
39882;SDS011;55824;52.220;21.040;2022-10-16T14:57:34;7.80;;;6.40;;
39882;SDS011;55824;52.220;21.040;2022-10-16T15:00:02;7.47;;;6.38;;
39882;SDS011;55824;52.220;21.040;2022-10-16T15:02:31;6.25;;;5.45;;
39882;SDS011;55824;52.220;21.040;2022-10-16T15:05:02;8.10;;;6.60;;
39882;SDS011;55824;52.220;21.040;2022-10-16T15:07:31;7.53;;;6.28;;
39882;SDS011;55824;52.220;21.040;2022-10-16T15:09:57;8.73;;;7.22;;
39882;SDS011;55824;52.220;21.040;2022-10-16T15:12:23;7.82;;;6.25;;
39882;SDS011;55824;52.220;21.040;2022-10-16T15:14:49;9.05;;;5.90;;
39882;SDS011;55824;52.220;21.040;2022-10-16T15:17:15;7.68;;;6.68;;
39882;SDS011;55824;52.220;21.040;2022-10-16T15:19:41;7.38;;;6.35;;
39882;SDS011;55824;52.220;21.040;2022-10-16T15:22:08;7.72;;;6.43;;
39882;SDS011;55824;52.220;21.040;2022-10-16T15:24:35;7.22;;;5.97;;
39882;SDS011;55824;52.220;21.040;2022-10-16T15:27:01;8.77;;;6.45;;
39882;SDS011;55824;52.220;21.040;2022-10-16T15:29:27;7.50;;;6.68;;
39882;SDS011;55824;52.220;21.040;2022-10-16T15:31:53;6.82;;;5.68;;
39882;SDS011;55824;52.220;21.040;2022-10-16T15:34:19;7.50;;;6.18;;
39882;SDS011;55824;52.220;21.040;2022-10-16T15:36:45;7.53;;;6.55;;
39882;SDS011;55824;52.220;21.040;2022-10-16T15:39:18;8.15;;;6.10;;
39882;SDS011;55824;52.220;21.040;2022-10-16T15:41:45;7.78;;;6.70;;
39882;SDS011;55824;52.220;21.040;2022-10-16T15:44:15;7.95;;;6.45;;
39882;SDS011;55824;52.220;21.040;2022-10-16T15:46:41;6.78;;;5.90;;
39882;SDS011;55824;52.220;21.040;2022-10-16T15:49:07;7.20;;;6.15;;
39882;SDS011;55824;52.220;21.040;2022-10-16T15:51:34;7.38;;;6.47;;
39882;SDS011;55824;52.220;21.040;2022-10-16T15:54:03;7.28;;;6.13;;
39882;SDS011;55824;52.220;21.040;2022-10-16T15:56:29;7.35;;;6.60;;
39882;SDS011;55824;52.220;21.040;2022-10-16T15:58:58;9.02;;;6.75;;
39882;SDS011;55824;52.220;21.040;2022-10-16T16:01:24;7.35;;;6.65;;
39882;SDS011;55824;52.220;21.040;2022-10-16T16:03:53;6.88;;;6.18;;
39882;SDS011;55824;52.220;21.040;2022-10-16T16:06:19;7.25;;;6.20;;
39882;SDS011;55824;52.220;21.040;2022-10-16T16:08:45;7.78;;;6.40;;
39882;SDS011;55824;52.220;21.040;2022-10-16T16:11:12;7.65;;;6.85;;
39882;SDS011;55824;52.220;21.040;2022-10-16T16:13:39;7.50;;;6.22;;
39882;SDS011;55824;52.220;21.040;2022-10-16T16:16:06;7.25;;;6.43;;
39882;SDS011;55824;52.220;21.040;2022-10-16T16:18:33;7.93;;;6.32;;